createdAt,value
2022-12-23T00:01:37.014Z,21.78
2022-12-23T00:04:07.387Z,21.63
2022-12-23T00:06:38.088Z,21.70
2022-12-23T00:09:08.125Z,21.82
2022-12-23T00:11:58.570Z,21.72
2022-12-23T00:14:46.880Z,21.81
2022-12-23T00:17:22.483Z,21.90
2022-12-23T00:19:53.091Z,21.89
2022-12-23T00:22:43.520Z,22.05
2022-12-23T00:25:14.579Z,22.35
2022-12-23T00:28:02.477Z,22.12
2022-12-23T00:30:32.506Z,22.05
2022-12-23T00:33:05.424Z,22.10
2022-12-23T00:35:35.940Z,22.01
2022-12-23T00:38:09.123Z,21.85
2022-12-23T00:40:59.111Z,21.77
2022-12-23T00:43:29.751Z,21.57
2022-12-23T00:46:00.400Z,21.49
2022-12-23T00:48:48.395Z,21.58
2022-12-23T00:51:18.803Z,21.50
2022-12-23T00:53:49.326Z,21.47
2022-12-23T00:56:19.820Z,21.61
2022-12-23T00:58:50.266Z,21.75
2022-12-23T01:01:39.150Z,21.89
2022-12-23T01:04:28.909Z,21.84
2022-12-23T01:06:59.345Z,21.78
2022-12-23T01:09:29.772Z,21.99
2022-12-23T01:12:00.691Z,21.64
2022-12-23T01:14:30.942Z,21.88
2022-12-23T01:17:04.792Z,21.86
2022-12-23T01:19:35.642Z,21.79
2022-12-23T01:22:06.225Z,21.56
2022-12-23T01:24:35.903Z,21.37
2022-12-23T01:27:06.302Z,21.20
2022-12-23T01:29:36.573Z,21.23
2022-12-23T01:32:07.443Z,20.97
2022-12-23T01:34:37.758Z,20.94
2022-12-23T01:37:08.277Z,20.94
2022-12-23T01:39:38.494Z,20.99
2022-12-23T01:42:33.535Z,21.02
2022-12-23T01:45:18.003Z,21.17
2022-12-23T01:48:01.562Z,21.17
2022-12-23T01:50:42.107Z,21.13
2022-12-23T01:53:23.555Z,21.09
2022-12-23T01:55:58.851Z,21.11
2022-12-23T01:58:44.024Z,20.91
2022-12-23T02:01:32.800Z,20.80
2022-12-23T02:04:09.066Z,20.69
2022-12-23T02:07:02.958Z,20.63
2022-12-23T02:09:37.167Z,20.56
2022-12-23T02:12:26.183Z,20.66
2022-12-23T02:15:32.331Z,20.51
2022-12-23T02:18:17.916Z,20.46
2022-12-23T02:21:30.737Z,20.56
2022-12-23T02:24:39.415Z,20.67
2022-12-23T02:27:26.483Z,20.67
2022-12-23T02:30:08.708Z,20.84
2022-12-23T02:33:05.859Z,20.69
2022-12-23T02:35:54.044Z,20.80
2022-12-23T02:39:07.773Z,20.72
2022-12-23T02:41:52.958Z,20.78
2022-12-23T02:44:40.662Z,20.81
2022-12-23T02:47:24.534Z,20.43
2022-12-23T02:50:04.033Z,20.57
2022-12-23T02:52:37.865Z,20.44
2022-12-23T02:55:17.269Z,20.32
2022-12-23T02:57:51.660Z,20.16
2022-12-23T03:00:23.966Z,20.25
2022-12-23T03:02:54.243Z,20.30
2022-12-23T03:05:41.696Z,20.19
2022-12-23T03:08:19.816Z,20.02
2022-12-23T03:11:41.136Z,19.89
2022-12-23T03:14:32.211Z,19.77
2022-12-23T03:17:15.242Z,19.77
2022-12-23T03:19:55.763Z,19.94
2022-12-23T03:22:35.133Z,20.00
2022-12-23T03:25:15.124Z,19.71
2022-12-23T03:27:54.577Z,19.54
2022-12-23T03:30:26.008Z,19.46
2022-12-23T03:33:09.497Z,19.23
2022-12-23T03:35:45.619Z,19.11
2022-12-23T03:38:19.350Z,18.98
2022-12-23T03:41:03.603Z,19.04
2022-12-23T03:43:51.038Z,18.91
2022-12-23T03:46:32.255Z,18.82
2022-12-23T03:49:10.387Z,18.95
2022-12-23T03:51:54.320Z,18.68
2022-12-23T03:54:37.844Z,18.74
2022-12-23T03:57:10.668Z,19.10
2022-12-23T03:59:47.064Z,18.94
2022-12-23T04:02:59.708Z,18.99
2022-12-23T04:05:36.515Z,18.92
2022-12-23T04:08:24.262Z,19.03
2022-12-23T04:10:55.049Z,19.08
2022-12-23T04:13:24.764Z,18.92
2022-12-23T04:15:55.552Z,18.89
2022-12-23T04:18:25.848Z,18.64
2022-12-23T04:20:56.529Z,18.50
2022-12-23T04:23:26.732Z,18.30
2022-12-23T04:25:58.353Z,18.40
2022-12-23T04:28:28.516Z,18.43
2022-12-23T04:30:59.064Z,18.45
2022-12-23T04:33:29.308Z,18.35
2022-12-23T04:36:02.074Z,18.30
2022-12-23T04:38:32.376Z,18.24
2022-12-23T04:41:02.954Z,18.26
2022-12-23T04:43:33.172Z,18.20
2022-12-23T04:46:03.693Z,18.20
2022-12-23T04:48:33.958Z,18.05
2022-12-23T04:51:06.441Z,18.02
2022-12-23T04:53:38.688Z,18.02
2022-12-23T04:56:09.210Z,18.10
2022-12-23T04:58:39.329Z,18.07
2022-12-23T05:01:12.339Z,18.04
2022-12-23T05:03:43.260Z,18.09
2022-12-23T05:06:13.740Z,18.01
2022-12-23T05:08:43.892Z,18.04
2022-12-23T05:11:15.038Z,18.03
2022-12-23T05:13:46.623Z,17.92
2022-12-23T05:16:17.222Z,18.18
2022-12-23T05:18:47.437Z,18.12
2022-12-23T05:21:18.386Z,18.00
2022-12-23T05:23:48.442Z,17.98
2022-12-23T05:26:18.411Z,17.93
2022-12-23T05:28:48.576Z,17.96
2022-12-23T05:31:19.128Z,17.98
2022-12-23T05:33:49.888Z,18.21
2022-12-23T05:36:20.511Z,18.30
2022-12-23T05:38:50.456Z,18.19
2022-12-23T05:41:21.138Z,18.62
2022-12-23T05:43:51.178Z,18.58
2022-12-23T05:46:26.255Z,18.65
2022-12-23T05:48:56.993Z,18.45
2022-12-23T05:51:27.649Z,18.75
2022-12-23T05:54:01.312Z,18.48
2022-12-23T05:56:31.802Z,18.45
2022-12-23T05:59:01.891Z,18.10
2022-12-23T06:01:31.861Z,17.93
2022-12-23T06:04:02.213Z,17.71
2022-12-23T06:06:32.887Z,18.08
2022-12-23T06:09:03.059Z,17.93
2022-12-23T06:11:33.569Z,17.63
2022-12-23T06:14:04.065Z,17.77
2022-12-23T06:16:35.211Z,18.05
2022-12-23T06:19:05.592Z,18.25
2022-12-23T06:21:36.184Z,18.28
2022-12-23T06:24:06.572Z,18.38
2022-12-23T06:26:37.219Z,18.43
2022-12-23T06:29:07.400Z,18.43
2022-12-23T06:31:38.192Z,18.44
2022-12-23T06:34:08.251Z,18.11
2022-12-23T06:36:38.197Z,17.89
2022-12-23T06:39:07.964Z,18.01
2022-12-23T06:41:38.376Z,18.04
2022-12-23T06:44:09.095Z,18.30
2022-12-23T06:46:39.350Z,18.32
2022-12-23T06:49:13.378Z,18.09
2022-12-23T06:51:43.952Z,17.81
2022-12-23T06:54:14.550Z,17.75
2022-12-23T06:56:44.642Z,17.68
2022-12-23T06:59:14.635Z,17.52
2022-12-23T07:01:44.744Z,17.39
2022-12-23T07:04:15.384Z,17.31
2022-12-23T07:06:45.498Z,17.38
2022-12-23T07:09:15.441Z,17.47
2022-12-23T07:11:45.208Z,17.36
2022-12-23T07:14:15.275Z,17.51
2022-12-23T07:16:49.215Z,17.55
2022-12-23T07:19:19.232Z,17.79
2022-12-23T07:21:49.215Z,17.49
2022-12-23T07:24:19.008Z,17.81
2022-12-23T07:26:49.188Z,18.17
2022-12-23T07:29:19.687Z,18.00
2022-12-23T07:31:49.796Z,18.05
2022-12-23T07:34:20.961Z,18.22
2022-12-23T07:36:50.988Z,18.38
2022-12-23T07:39:21.850Z,18.21
2022-12-23T07:42:09.000Z,17.84
2022-12-23T07:44:42.595Z,17.83
2022-12-23T07:47:12.722Z,17.79
2022-12-23T07:49:43.260Z,18.04
2022-12-23T07:52:13.331Z,17.99
2022-12-23T07:54:43.335Z,18.18
2022-12-23T07:57:16.104Z,18.07
2022-12-23T07:59:46.644Z,18.23
2022-12-23T08:02:16.883Z,18.17
2022-12-23T08:04:47.707Z,18.35
2022-12-23T08:07:17.839Z,18.14
2022-12-23T08:09:47.791Z,18.32
2022-12-23T08:12:18.414Z,18.25
2022-12-23T08:14:53.819Z,17.90
2022-12-23T08:17:27.309Z,17.81
2022-12-23T08:19:58.745Z,18.14
2022-12-23T08:22:28.811Z,17.87
2022-12-23T08:25:00.545Z,17.96
2022-12-23T08:27:30.450Z,18.24
2022-12-23T08:30:00.370Z,18.06
2022-12-23T08:32:30.888Z,18.21
2022-12-23T08:35:01.472Z,18.09
2022-12-23T08:37:31.483Z,18.45
2022-12-23T08:40:01.503Z,18.62
2022-12-23T08:42:31.979Z,18.70
2022-12-23T08:45:05.171Z,19.09
2022-12-23T08:47:35.745Z,19.52
2022-12-23T08:50:06.440Z,19.80
2022-12-23T08:52:37.156Z,20.04
2022-12-23T08:55:07.524Z,19.79
2022-12-23T08:57:38.109Z,20.08
2022-12-23T09:00:08.986Z,20.57
2022-12-23T09:02:39.832Z,20.73
2022-12-23T09:05:09.827Z,20.89
2022-12-23T09:07:40.232Z,20.89
2022-12-23T09:10:10.654Z,21.03
2022-12-23T09:12:41.439Z,21.09
2022-12-23T09:15:11.363Z,21.23
2022-12-23T09:17:41.119Z,21.52
2022-12-23T09:20:12.129Z,22.03
2022-12-23T09:22:44.894Z,22.09
2022-12-23T09:25:16.806Z,22.34
2022-12-23T09:27:46.869Z,22.69
2022-12-23T09:30:17.417Z,23.03
2022-12-23T09:32:47.065Z,23.21
2022-12-23T09:35:17.488Z,23.20
2022-12-23T09:37:47.324Z,23.63
2022-12-23T09:40:22.604Z,24.05
2022-12-23T09:43:04.493Z,24.31
2022-12-23T09:46:05.282Z,24.41
2022-12-23T09:48:44.648Z,24.43
2022-12-23T09:51:16.046Z,24.52
2022-12-23T09:54:08.701Z,24.59
2022-12-23T09:57:09.651Z,24.63
2022-12-23T10:00:04.915Z,25.15
2022-12-23T10:02:48.891Z,25.42
2022-12-23T10:05:42.089Z,25.45
2022-12-23T10:08:43.252Z,25.86
2022-12-23T10:11:18.964Z,26.28
2022-12-23T10:14:02.158Z,26.36
2022-12-23T10:16:41.416Z,26.75
2022-12-23T10:19:22.226Z,26.58
2022-12-23T10:22:04.326Z,27.04
2022-12-23T10:24:49.187Z,27.49
2022-12-23T10:27:32.442Z,27.91
2022-12-23T10:30:53.849Z,27.90
2022-12-23T10:33:46.746Z,28.41
2022-12-23T10:36:31.045Z,28.58
2022-12-23T10:39:04.136Z,28.86
2022-12-23T10:42:12.307Z,29.49
2022-12-23T10:45:11.104Z,30.20
2022-12-23T10:47:53.907Z,30.06
2022-12-23T10:50:36.016Z,29.97
2022-12-23T10:53:12.711Z,30.67
2022-12-23T10:55:42.912Z,31.06
2022-12-23T10:58:19.447Z,31.76
2022-12-23T11:01:01.387Z,31.98
2022-12-23T11:03:41.757Z,32.33
2022-12-23T11:06:13.876Z,32.41
2022-12-23T11:08:44.893Z,32.54
2022-12-23T11:11:15.925Z,32.51
2022-12-23T11:13:49.008Z,33.10
2022-12-23T11:16:25.351Z,33.39
2022-12-23T11:19:07.662Z,33.61
2022-12-23T11:21:37.708Z,34.26
2022-12-23T11:24:23.367Z,34.84
2022-12-23T11:27:08.926Z,34.92
2022-12-23T11:29:45.546Z,35.05
2022-12-23T11:32:26.580Z,33.75
2022-12-23T11:34:58.191Z,33.12
2022-12-23T11:37:39.504Z,33.58
2022-12-23T11:40:23.632Z,33.89
2022-12-23T11:43:06.509Z,34.49
2022-12-23T11:45:38.920Z,34.17
2022-12-23T11:48:29.504Z,34.61
2022-12-23T11:51:05.474Z,35.35
2022-12-23T11:53:37.728Z,34.79
2022-12-23T11:56:12.088Z,35.28
2022-12-23T11:58:53.538Z,35.21
2022-12-23T12:01:27.592Z,35.70
2022-12-23T12:04:03.493Z,35.58
2022-12-23T12:06:34.980Z,34.55
2022-12-23T12:09:07.911Z,34.75
2022-12-23T12:11:45.824Z,34.44
2022-12-23T12:14:33.113Z,34.32
2022-12-23T12:17:13.691Z,34.67
2022-12-23T12:20:02.229Z,34.86
2022-12-23T12:22:48.081Z,35.11
2022-12-23T12:25:45.839Z,34.33
2022-12-23T12:28:22.690Z,35.18
2022-12-23T12:31:20.678Z,35.59
2022-12-23T12:34:16.523Z,35.77
2022-12-23T12:37:28.934Z,36.48
2022-12-23T12:40:05.907Z,36.25
2022-12-23T12:42:54.369Z,36.63
2022-12-23T12:45:29.815Z,37.22
2022-12-23T12:48:24.698Z,36.89
2022-12-23T12:51:03.490Z,36.56
2022-12-23T12:53:35.124Z,36.87
2022-12-23T12:56:16.640Z,37.44
2022-12-23T12:58:47.115Z,37.53
2022-12-23T13:01:20.135Z,36.54
2022-12-23T13:04:14.851Z,36.53
2022-12-23T13:07:05.913Z,35.97
2022-12-23T13:10:13.273Z,37.89
2022-12-23T13:13:10.743Z,38.42
2022-12-23T13:15:52.061Z,38.91
2022-12-23T13:18:40.361Z,38.71
2022-12-23T13:21:33.340Z,37.77
2022-12-23T13:24:11.831Z,38.69
2022-12-23T13:27:02.607Z,38.44
2022-12-23T13:29:58.301Z,38.05
2022-12-23T13:33:03.265Z,39.24
2022-12-23T13:36:16.148Z,38.78
2022-12-23T13:39:05.802Z,39.55
2022-12-23T13:41:50.539Z,40.35
2022-12-23T13:44:22.501Z,40.40
2022-12-23T13:47:14.233Z,40.87
2022-12-23T13:50:11.976Z,41.26
2022-12-23T13:53:11.265Z,41.56
2022-12-23T13:56:03.079Z,41.40
2022-12-23T13:58:34.606Z,41.63
2022-12-23T14:01:05.111Z,42.02
2022-12-23T14:03:37.333Z,40.80
2022-12-23T14:06:45.333Z,39.42
2022-12-23T14:09:18.139Z,39.09
2022-12-23T14:11:49.417Z,38.17
2022-12-23T14:14:26.416Z,39.41
2022-12-23T14:17:09.255Z,39.38
2022-12-23T14:19:43.885Z,39.81
2022-12-23T14:22:51.055Z,39.95
2022-12-23T14:25:56.822Z,39.62
2022-12-23T14:28:46.209Z,38.55
2022-12-23T14:31:42.808Z,39.10
2022-12-23T14:34:21.306Z,38.66
2022-12-23T14:37:22.342Z,38.98
2022-12-23T14:39:54.234Z,37.37
2022-12-23T14:42:44.752Z,38.52
2022-12-23T14:45:43.789Z,39.64
2022-12-23T14:48:45.935Z,39.46
2022-12-23T14:51:16.367Z,38.09
2022-12-23T14:54:01.856Z,39.26
2022-12-23T14:56:44.354Z,40.31
2022-12-23T14:59:47.066Z,40.68
2022-12-23T15:02:21.378Z,40.66
2022-12-23T15:04:59.872Z,39.30
2022-12-23T15:07:43.368Z,38.90
2022-12-23T15:10:39.676Z,40.63
2022-12-23T15:13:18.908Z,41.42
2022-12-23T15:16:01.338Z,41.24
2022-12-23T15:18:32.137Z,39.66
2022-12-23T15:21:03.320Z,40.57
2022-12-23T15:23:34.390Z,41.07
2022-12-23T15:26:04.806Z,41.16
2022-12-23T15:28:41.013Z,39.06
2022-12-23T15:31:44.662Z,38.98
2022-12-23T15:34:28.561Z,39.70
2022-12-23T15:36:59.135Z,41.05
2022-12-23T15:39:29.597Z,40.60
2022-12-23T15:41:59.767Z,40.75
2022-12-23T15:44:39.482Z,39.47
2022-12-23T15:47:33.073Z,39.09
2022-12-23T15:50:05.133Z,39.75
2022-12-23T15:52:35.280Z,40.55
2022-12-23T15:55:26.043Z,40.26
2022-12-23T15:57:56.470Z,39.01
2022-12-23T16:00:32.676Z,39.75
2022-12-23T16:03:05.625Z,38.54
2022-12-23T16:05:40.478Z,39.76
2022-12-23T16:08:33.738Z,41.19
2022-12-23T16:11:22.164Z,40.82
2022-12-23T16:14:04.467Z,41.96
2022-12-23T16:16:45.528Z,39.66
2022-12-23T16:19:51.790Z,37.91
2022-12-23T16:22:31.258Z,38.07
2022-12-23T16:25:09.554Z,37.67
2022-12-23T16:27:45.010Z,37.39
2022-12-23T16:30:22.125Z,37.95
2022-12-23T16:32:56.215Z,38.06
2022-12-23T16:35:41.990Z,37.71
2022-12-23T16:38:26.196Z,38.06
2022-12-23T16:40:58.302Z,38.42
2022-12-23T16:43:28.756Z,37.81
2022-12-23T16:45:59.577Z,37.55
2022-12-23T16:48:37.027Z,38.77
2022-12-23T16:51:15.082Z,37.87
2022-12-23T16:53:45.641Z,37.45
2022-12-23T16:56:17.663Z,38.32
2022-12-23T16:58:48.359Z,38.25
2022-12-23T17:01:23.702Z,38.88
2022-12-23T17:03:55.176Z,38.44
2022-12-23T17:06:26.481Z,38.52
2022-12-23T17:08:58.115Z,37.91
2022-12-23T17:11:37.187Z,37.95
2022-12-23T17:14:15.235Z,38.52
2022-12-23T17:16:47.056Z,38.11
2022-12-23T17:19:23.395Z,37.68
2022-12-23T17:22:02.323Z,37.79
2022-12-23T17:24:32.907Z,37.69
2022-12-23T17:27:03.092Z,36.80
2022-12-23T17:29:33.579Z,36.67
2022-12-23T17:32:04.509Z,36.80
2022-12-23T17:34:35.759Z,38.06
2022-12-23T17:37:20.904Z,37.18
2022-12-23T17:39:51.544Z,37.49
2022-12-23T17:42:26.072Z,38.33
2022-12-23T17:44:56.455Z,37.75
2022-12-23T17:47:26.949Z,37.19
2022-12-23T17:49:56.989Z,37.22
2022-12-23T17:52:27.889Z,36.88
2022-12-23T17:54:57.945Z,37.55
2022-12-23T17:57:28.970Z,36.96
2022-12-23T17:59:59.016Z,37.37
2022-12-23T18:02:33.985Z,37.37
2022-12-23T18:05:17.388Z,37.52
2022-12-23T18:07:47.891Z,36.82
2022-12-23T18:10:19.734Z,36.86
2022-12-23T18:12:55.108Z,36.06
2022-12-23T18:15:37.167Z,36.26
2022-12-23T18:18:24.146Z,36.28
2022-12-23T18:21:02.585Z,35.75
2022-12-23T18:23:34.963Z,35.59
2022-12-23T18:26:05.724Z,36.06
2022-12-23T18:28:36.223Z,35.70
2022-12-23T18:31:06.354Z,35.56
2022-12-23T18:33:36.917Z,35.61
2022-12-23T18:36:07.176Z,36.18
2022-12-23T18:38:37.796Z,35.20
2022-12-23T18:41:07.925Z,35.37
2022-12-23T18:43:38.423Z,35.23
2022-12-23T18:46:08.575Z,34.95
2022-12-23T18:48:39.177Z,35.05
2022-12-23T18:51:11.971Z,34.65
2022-12-23T18:53:42.856Z,35.25
2022-12-23T18:56:17.047Z,34.82
2022-12-23T18:58:47.610Z,34.82
2022-12-23T19:01:19.821Z,34.67
2022-12-23T19:03:50.510Z,34.65
2022-12-23T19:06:20.715Z,35.32
2022-12-23T19:08:51.513Z,34.55
2022-12-23T19:11:22.617Z,34.45
2022-12-23T19:13:53.304Z,33.86
2022-12-23T19:16:23.716Z,33.60
2022-12-23T19:18:54.491Z,33.65
2022-12-23T19:21:24.623Z,33.69
2022-12-23T19:23:55.243Z,33.33
2022-12-23T19:26:25.637Z,33.48
2022-12-23T19:28:57.229Z,32.97
2022-12-23T19:31:27.363Z,33.20
2022-12-23T19:33:57.956Z,33.57
2022-12-23T19:36:28.273Z,33.26
2022-12-23T19:38:59.557Z,33.98
2022-12-23T19:41:29.653Z,34.02
2022-12-23T19:44:00.134Z,33.32
2022-12-23T19:46:30.379Z,33.05
2022-12-23T19:49:01.085Z,32.97
2022-12-23T19:51:31.201Z,32.85
2022-12-23T19:54:01.700Z,32.64
2022-12-23T19:56:33.510Z,32.41
2022-12-23T19:59:05.481Z,32.59
2022-12-23T20:01:35.620Z,32.93
2022-12-23T20:04:06.679Z,32.80
2022-12-23T20:06:40.161Z,32.51
2022-12-23T20:09:13.336Z,32.40
2022-12-23T20:11:48.800Z,32.26
2022-12-23T20:14:20.331Z,32.61
2022-12-23T20:16:50.788Z,32.43
2022-12-23T20:19:21.739Z,31.93
2022-12-23T20:21:51.776Z,31.72
2022-12-23T20:24:22.392Z,31.46
2022-12-23T20:26:52.666Z,31.46
2022-12-23T20:29:23.124Z,31.44
2022-12-23T20:31:53.195Z,31.34
2022-12-23T20:34:24.431Z,31.45
2022-12-23T20:36:55.325Z,31.51
2022-12-23T20:39:25.990Z,31.40
2022-12-23T20:41:56.005Z,31.29
2022-12-23T20:44:35.690Z,30.94
2022-12-23T20:47:09.458Z,30.86
2022-12-23T20:49:40.048Z,30.86
2022-12-23T20:52:10.493Z,30.53
2022-12-23T20:54:41.690Z,30.83
2022-12-23T20:57:11.702Z,30.99
2022-12-23T20:59:42.310Z,30.85
2022-12-23T21:02:17.750Z,30.60
2022-12-23T21:04:48.468Z,31.03
2022-12-23T21:07:18.518Z,31.02
2022-12-23T21:09:48.398Z,30.90
2022-12-23T21:12:19.015Z,30.89
2022-12-23T21:14:49.228Z,31.65
2022-12-23T21:17:19.801Z,31.69
2022-12-23T21:19:49.848Z,31.11
2022-12-23T21:22:20.278Z,30.97
2022-12-23T21:24:50.386Z,30.81
2022-12-23T21:27:20.798Z,30.92
2022-12-23T21:29:53.546Z,30.44
2022-12-23T21:32:24.135Z,30.51
2022-12-23T21:34:54.187Z,30.47
2022-12-23T21:37:24.655Z,29.91
